createdAt,value
2022-11-19T00:01:20.330Z,97053.67104000757
2022-11-19T00:04:16.631Z,97054.84729181262
2022-11-19T00:07:16.862Z,97048.10659850592
2022-11-19T00:11:18.941Z,97048.79815249177
2022-11-19T00:14:17.390Z,97041.0664227328
2022-11-19T00:17:17.292Z,97039.09519836401
2022-11-19T00:21:16.660Z,97046.49002474608
2022-11-19T00:24:17.227Z,97041.50122369676
2022-11-19T00:27:17.140Z,97051.69836848804
2022-11-19T00:31:17.542Z,97050.9019601273
2022-11-19T00:34:18.330Z,97038.03133344733
2022-11-19T00:37:18.630Z,97047.19819767207
2022-11-19T00:41:17.091Z,97038.95253508273
2022-11-19T00:44:17.362Z,97023.33302197413
2022-11-19T00:47:17.423Z,97015.8236396595
2022-11-19T00:51:18.687Z,97008.47289658396
2022-11-19T00:54:18.002Z,97006.64532288509
2022-11-19T00:57:17.400Z,97021.71505973423
2022-11-19T01:01:18.716Z,97031.2909818027
2022-11-19T01:04:17.969Z,97029.97959510285
2022-11-19T01:07:16.472Z,97031.96291135768
2022-11-19T01:11:19.660Z,97042.43072539273
2022-11-19T01:14:16.741Z,97045.04854261737
2022-11-19T01:17:16.725Z,97052.88302543091
2022-11-19T01:21:19.357Z,97052.47552457414
2022-11-19T01:24:17.378Z,97053.3256238482
2022-11-19T01:27:17.121Z,97052.18463398554
2022-11-19T01:31:23.507Z,97053.90147515264
2022-11-19T01:34:16.847Z,97055.38441594245
2022-11-19T01:37:16.755Z,97050.57314878149
2022-11-19T01:41:16.609Z,97050.25082995022
2022-11-19T01:51:20.841Z,97054.75106423908
2022-11-19T01:54:21.962Z,97043.36105830187
2022-11-19T01:57:17.527Z,97039.57923070656
2022-11-19T02:01:18.326Z,97041.34883392503
2022-11-19T02:04:18.192Z,97032.96354024092
2022-11-19T02:07:17.952Z,97039.33347579217
2022-11-19T02:11:36.742Z,97035.82519406111
2022-11-19T02:14:29.553Z,97033.37823012644
2022-11-19T02:17:26.445Z,97043.40143327478
2022-11-19T02:21:26.273Z,97052.01992711742
2022-11-19T02:24:52.994Z,97053.21632221773
2022-11-19T02:27:49.650Z,97049.61219209644
2022-11-19T02:31:21.753Z,97056.85065956466
2022-11-19T02:34:23.073Z,97056.86141048203
2022-11-19T02:37:25.389Z,97045.6541669918
2022-11-19T02:41:55.150Z,97040.50634686463
2022-11-19T03:11:21.031Z,97051.88335366943
2022-11-19T03:21:23.502Z,97042.62436754376
2022-11-19T03:24:22.574Z,97048.75060945845
2022-11-19T03:27:23.258Z,97047.90593290159
2022-11-19T03:31:19.194Z,97039.12923553147
2022-11-19T03:34:22.070Z,97052.54215860946
2022-11-19T03:37:27.432Z,97044.45492846487
2022-11-19T03:41:19.273Z,97035.34577662157
2022-11-19T03:44:23.961Z,97036.99517192463
2022-11-19T03:47:21.264Z,97030.24186415077
2022-11-19T03:51:21.440Z,97026.51964809289
2022-11-19T03:54:17.179Z,97035.23636318975
2022-11-19T03:57:20.075Z,97041.83330380869
2022-11-19T04:01:16.622Z,97046.82808038042
2022-11-19T04:04:48.777Z,97041.23676349071
2022-11-19T04:07:20.533Z,97047.7867598939
2022-11-19T04:21:16.531Z,97026.55043340352
2022-11-19T04:24:17.975Z,97026.72356622874
2022-11-19T04:27:16.951Z,97030.44598468559
2022-11-19T04:31:22.491Z,97027.5867651578
2022-11-19T04:34:16.123Z,97028.21581104265
2022-11-19T04:37:16.498Z,97029.50363217607
2022-11-19T04:41:17.152Z,97022.08991932475
2022-11-19T04:44:17.662Z,97015.27260653285
2022-11-19T04:47:16.943Z,97019.82718122684
2022-11-19T04:51:16.582Z,97012.80865837733
2022-11-19T04:54:17.294Z,97010.62507353796
2022-11-19T04:57:16.890Z,97005.0030050914
2022-11-19T05:01:16.914Z,97007.5479840326
2022-11-19T05:04:17.210Z,97001.64339923878
2022-11-19T05:07:17.222Z,97002.9624225972
2022-11-19T05:11:16.038Z,96989.34750740558
2022-11-19T05:14:16.902Z,96991.2950715944
2022-11-19T05:17:16.372Z,96992.77120668087
2022-11-19T05:21:17.578Z,96999.61725691987
2022-11-19T05:24:17.121Z,97002.11372847245
2022-11-19T05:27:17.292Z,96995.45562948904
2022-11-19T05:31:15.863Z,96993.61825665896
2022-11-19T05:34:16.275Z,96993.64841789333
2022-11-19T05:37:16.878Z,96995.91117436023
2022-11-19T05:41:17.472Z,97002.31442127553
2022-11-19T05:44:17.601Z,97002.84989244028
2022-11-19T05:47:17.290Z,96998.21870423481
2022-11-19T05:51:17.359Z,96986.42728975324
2022-11-19T05:54:17.263Z,96990.5565589146
2022-11-19T05:57:16.787Z,96986.94557916641
2022-11-19T06:01:26.212Z,96980.94755121742
2022-11-19T06:04:17.122Z,96981.77982851988
2022-11-19T06:07:16.871Z,96979.00063423892
2022-11-19T06:11:47.835Z,96980.46085300401
2022-11-19T06:14:19.023Z,96982.86231049494
2022-11-19T06:17:17.364Z,96981.7149907057
2022-11-19T06:21:17.151Z,96974.25768691067
2022-11-19T06:24:17.189Z,96977.49051915758
2022-11-19T06:27:17.322Z,96976.95753659128
2022-11-19T06:31:16.814Z,96993.78808931516
2022-11-19T06:34:17.749Z,96985.40343987658
2022-11-19T06:37:20.319Z,96978.44698999762
2022-11-19T06:41:19.899Z,96976.18750070962
2022-11-19T06:44:18.091Z,96985.02434828425
2022-11-19T06:47:18.087Z,96987.74019647855
2022-11-19T06:51:17.399Z,96994.67837022031
2022-11-19T06:54:18.013Z,96992.73342584453
2022-11-19T06:57:18.055Z,96992.58792414602
2022-11-19T07:01:17.669Z,96990.67145779653
2022-11-19T07:04:18.439Z,96991.48814938814
2022-11-19T07:07:17.153Z,96993.87651804589
2022-11-19T07:11:31.815Z,96994.06312581983
2022-11-19T07:14:16.685Z,96990.73466391029
2022-11-19T07:17:16.670Z,96984.95976205032
2022-11-19T07:21:15.910Z,96992.84406575047
2022-11-19T07:24:16.946Z,96978.37090246945
2022-11-19T07:27:16.917Z,96977.48990236169
2022-11-19T07:31:17.893Z,96981.98308598675
2022-11-19T07:34:17.430Z,96992.14065790127
2022-11-19T07:37:16.950Z,96997.41771917822
2022-11-19T07:51:16.860Z,96999.6332683857
2022-11-19T07:54:17.196Z,97003.51204280723
2022-11-19T07:57:17.749Z,96995.37766545906
2022-11-19T08:01:20.084Z,96985.24770578281
2022-11-19T08:04:16.332Z,96980.7867644697
2022-11-19T08:07:24.186Z,96985.34033499978
2022-11-19T08:11:17.748Z,96977.3283217163
2022-11-19T08:14:17.096Z,96984.72535463431
2022-11-19T08:18:21.802Z,96988.23865581659
2022-11-19T08:21:45.234Z,96986.30958581978
2022-11-19T08:24:19.153Z,96988.49020635645
2022-11-19T08:27:18.502Z,96998.38274164646
2022-11-19T08:31:17.460Z,96993.0988425952
2022-11-19T08:34:18.635Z,96984.15646950099
2022-11-19T08:37:17.892Z,96981.70360466094
2022-11-19T08:51:16.928Z,96965.39333649489
2022-11-19T08:54:17.196Z,96967.96166587101
2022-11-19T08:57:17.284Z,96971.37433869307
2022-11-19T09:01:19.109Z,96963.70226354651
2022-11-19T09:04:17.461Z,96952.03338082475
2022-11-19T09:07:16.868Z,96960.31782318997
2022-11-19T09:11:19.318Z,96949.69656267534
2022-11-19T09:14:17.443Z,96936.30709674752
2022-11-19T09:17:46.554Z,96932.78280605041
2022-11-19T09:21:15.760Z,96936.03251797301
2022-11-19T09:24:16.200Z,96932.73299997905
2022-11-19T09:27:16.416Z,96925.1555552118
2022-11-19T09:31:18.390Z,96917.44837115356
2022-11-19T09:34:16.380Z,96915.30103127217
2022-11-19T09:37:18.789Z,96910.58759720442
2022-11-19T09:41:36.600Z,96895.73925486903
2022-11-19T09:44:32.363Z,96890.46516469114
2022-11-19T09:47:28.698Z,96883.65356768262
2022-11-19T09:51:21.111Z,96887.08336788701
2022-11-19T09:54:20.010Z,96873.53403773559
2022-11-19T09:57:27.184Z,96879.11948122113
2022-11-19T10:01:18.313Z,96859.21672789179
2022-11-19T10:04:21.318Z,96850.38184218311
2022-11-19T10:07:30.258Z,96846.63407453033
2022-11-19T10:11:30.216Z,96838.14766401022
2022-11-19T10:14:36.082Z,96820.09340293558
2022-11-19T10:17:26.912Z,96806.25031413074
2022-11-19T10:21:24.338Z,96787.45957267165
2022-11-19T10:24:25.882Z,96790.24674640327
2022-11-19T10:27:27.985Z,96775.490267531
2022-11-19T10:31:21.701Z,96778.663333759
2022-11-19T10:34:21.733Z,96769.75119185293
2022-11-19T10:37:21.811Z,96765.95257852838
2022-11-19T10:41:21.860Z,96748.26401598152
2022-11-19T10:44:41.750Z,96744.02071184678
2022-11-19T10:47:21.447Z,96750.46600652426
2022-11-19T10:51:22.062Z,96732.90428014097
2022-11-19T10:54:27.929Z,96717.72676403659
2022-11-19T10:57:21.594Z,96697.65051178889
2022-11-19T11:01:26.171Z,96700.6401651122
2022-11-19T11:04:19.747Z,96707.46749237139
2022-11-19T11:07:18.152Z,96704.0850973784
2022-11-19T11:11:24.442Z,96678.70764891943
2022-11-19T11:15:25.791Z,96692.77715654999
2022-11-19T11:17:20.104Z,96692.05771725689
2022-11-19T11:21:35.721Z,96691.58716568878
2022-11-19T11:24:17.207Z,96683.1453213589
2022-11-19T11:27:19.354Z,96638.26983101628
2022-11-19T11:31:28.677Z,96612.92499578974
2022-11-19T11:34:29.562Z,96613.15521657298
2022-11-19T11:37:16.568Z,96605.38717458269
2022-11-19T11:42:03.717Z,96658.88619410578
2022-11-19T11:44:19.645Z,96638.75472076728
2022-11-19T11:47:19.792Z,96608.5845429862
2022-11-19T11:51:36.169Z,96622.12365102782
2022-11-19T11:54:19.777Z,96603.01602779531
2022-11-19T11:57:23.468Z,96606.53469850341
2022-11-19T12:01:19.040Z,96627.37649053206
2022-11-19T12:04:19.318Z,96616.1327537967
2022-11-19T12:07:31.630Z,96603.02036937805
2022-11-19T12:11:52.278Z,96608.22899257456
2022-11-19T12:14:29.524Z,96576.84986727846
2022-11-19T12:17:37.024Z,96584.92360127244
2022-11-19T12:21:32.026Z,96591.84000368867
2022-11-19T12:24:30.112Z,96589.86656653885
2022-11-19T12:27:24.759Z,96598.31769748635
2022-11-19T12:31:30.212Z,96597.91606965281
2022-11-19T13:01:21.538Z,96565.32560072716
2022-11-19T13:04:22.735Z,96555.4587972623
2022-11-19T13:07:21.779Z,96546.38530790695
2022-11-19T13:11:22.682Z,96531.79939550752
2022-11-19T13:14:27.003Z,96525.20817609725
2022-11-19T13:17:21.372Z,96534.78518293766
2022-11-19T13:21:25.743Z,96527.22608807436
2022-11-19T13:24:27.045Z,96521.440227799
2022-11-19T13:27:23.399Z,96515.39550908026
2022-11-19T13:31:28.891Z,96521.56532481627
2022-11-19T13:34:23.099Z,96507.47129227367
2022-11-19T13:37:30.685Z,96502.09717182073
2022-11-19T13:41:20.182Z,96522.4318354498
2022-11-19T13:44:50.141Z,96526.40038909792
2022-11-19T13:47:22.565Z,96507.23045184574
2022-11-19T14:01:48.817Z,96488.90619205686
2022-11-19T14:11:41.146Z,96481.57146317328
2022-11-19T14:31:19.382Z,96574.82119225738
2022-11-19T14:34:26.122Z,96559.09820461636
2022-11-19T14:37:21.503Z,96589.00158464456
2022-11-19T14:41:25.578Z,96569.20779810172
2022-11-19T14:44:34.912Z,96564.34974784408
2022-11-19T14:47:49.913Z,96573.39412835678
2022-11-19T14:51:27.361Z,96585.52686118064
2022-11-19T14:54:31.278Z,96596.13007881369
2022-11-19T14:57:26.424Z,96590.30499246833
2022-11-19T15:01:20.638Z,96609.01513565474
2022-11-19T15:04:20.928Z,96620.33473049192
2022-11-19T15:07:34.052Z,96624.97363050136
2022-11-19T15:11:16.582Z,96613.91888850825
2022-11-19T15:14:48.856Z,96618.2585751641
2022-11-19T15:17:16.872Z,96612.2745421857
2022-11-19T15:21:31.933Z,96588.63589425174
2022-11-19T15:24:26.826Z,96604.60211142771
2022-11-19T15:27:26.941Z,96592.49084989115
2022-11-19T15:31:31.283Z,96593.2658586425
2022-11-19T15:34:48.759Z,96582.23760852226
2022-11-19T15:37:21.888Z,96571.58002713283
2022-11-19T15:41:22.173Z,96576.15209276068
2022-11-19T15:44:20.918Z,96560.7498973936
2022-11-19T15:47:20.713Z,96570.79602336156
2022-11-19T15:51:59.043Z,96577.12540758903
2022-11-19T15:54:38.400Z,96571.42846135436
2022-11-19T15:57:42.056Z,96571.06968704236
2022-11-19T16:01:18.131Z,96569.3595713862
2022-11-19T16:04:16.830Z,96573.9774268567
2022-11-19T16:07:22.811Z,96584.93511773704
2022-11-19T16:21:25.759Z,96562.6089789637
2022-11-19T16:25:30.171Z,96589.34297735736
2022-11-19T16:27:21.601Z,96583.03879123149
2022-11-19T16:31:28.459Z,96583.24954553871
2022-11-19T16:34:28.149Z,96574.57058333558
2022-11-19T16:37:22.836Z,96572.00632110113
2022-11-19T16:51:31.724Z,96568.67334652256
2022-11-19T16:54:42.804Z,96574.90637249936
2022-11-19T16:57:19.085Z,96586.44296594473
2022-11-19T17:01:18.372Z,96589.47161550606
2022-11-19T17:04:18.654Z,96569.21241237088
2022-11-19T17:07:24.019Z,96576.01462066582
2022-11-19T17:21:27.971Z,96600.60510109206
2022-11-19T17:24:17.795Z,96616.19819230016
2022-11-19T17:27:25.897Z,96614.30082605187
2022-11-19T17:31:18.892Z,96624.23249871813
2022-11-19T17:34:22.812Z,96635.50009840824
2022-11-19T17:37:16.687Z,96637.26844468748
2022-11-19T17:41:21.071Z,96644.41020259785
2022-11-19T17:44:49.719Z,96659.49142493193
2022-11-19T17:47:22.490Z,96660.26080244931
2022-11-19T17:51:17.923Z,96665.74625283745
2022-11-19T17:54:16.703Z,96665.27440217072
2022-11-19T17:57:17.503Z,96679.41561780698
2022-11-19T18:01:17.790Z,96685.49093316343
2022-11-19T18:04:17.428Z,96699.42531021731
2022-11-19T18:07:17.270Z,96690.54400893579
2022-11-19T18:11:18.983Z,96692.88748561876
2022-11-19T18:14:17.046Z,96691.55916900368
2022-11-19T18:17:16.645Z,96708.41920072483
2022-11-19T18:21:19.895Z,96713.67589847784
2022-11-19T18:24:17.060Z,96727.97588579293
2022-11-19T18:27:17.426Z,96719.8967704857
2022-11-19T18:31:19.986Z,96716.6009333448
2022-11-19T18:34:19.576Z,96750.8638953421
2022-11-19T18:37:18.077Z,96759.65438736111
2022-11-19T18:41:16.825Z,96757.30099808749
2022-11-19T18:44:48.483Z,96767.83114050538
2022-11-19T18:47:17.255Z,96771.90381734505
2022-11-19T18:51:18.106Z,96793.72138273416
2022-11-19T18:54:16.352Z,96813.26478237082
2022-11-19T18:57:16.545Z,96810.60561844254
2022-11-19T19:01:18.355Z,96814.2777558879
2022-11-19T19:04:17.272Z,96806.34074569245
2022-11-19T19:07:17.481Z,96795.02437206412
2022-11-19T19:12:22.300Z,96818.52537878753
2022-11-19T19:14:18.702Z,96828.12625353361
2022-11-19T19:17:17.718Z,96828.63505580391
2022-11-19T19:21:18.964Z,96828.95836045149
2022-11-19T19:24:19.341Z,96843.79304837319
2022-11-19T19:27:17.108Z,96859.39462794321
2022-11-19T19:31:27.357Z,96865.94741865621
2022-11-19T19:34:16.964Z,96868.49417505432
2022-11-19T19:37:16.558Z,96876.63608996091
2022-11-19T19:41:18.039Z,96893.12536453624
2022-11-19T19:44:16.943Z,96891.88947441503
2022-11-19T19:47:16.190Z,96904.43745636672
2022-11-19T19:51:17.761Z,96911.92675168421
2022-11-19T19:54:17.310Z,96904.15987309275
2022-11-19T19:57:16.695Z,96913.87639066811
2022-11-19T20:01:18.874Z,96913.42358054448
2022-11-19T20:04:16.437Z,96908.8090301128
2022-11-19T20:07:18.111Z,96913.58173524625
2022-11-19T20:11:17.900Z,96917.92694113171
2022-11-19T20:14:16.347Z,96920.99129621367
2022-11-19T20:17:17.240Z,96918.02176326902
2022-11-19T20:21:19.281Z,96925.78077872013
2022-11-19T20:24:18.940Z,96934.03876386795
2022-11-19T20:27:17.904Z,96937.47689146557
2022-11-19T20:31:18.446Z,96937.03710245986
2022-11-19T20:34:16.912Z,96938.05559622082
2022-11-19T20:37:18.276Z,96941.3966201899
2022-11-19T20:51:16.585Z,96953.07396469501
2022-11-19T20:54:18.096Z,96955.27885088645
2022-11-19T20:57:18.191Z,96959.27274983068
2022-11-19T21:01:17.377Z,96957.38887086336
2022-11-19T21:04:18.133Z,96963.58701547264
2022-11-19T21:07:17.445Z,96961.71537571913
2022-11-19T21:11:16.763Z,96965.80601843446
2022-11-19T21:14:16.180Z,96971.84446909052
2022-11-19T21:17:16.546Z,96973.66421707417
2022-11-19T21:21:18.453Z,96963.24916370891
2022-11-19T21:24:16.508Z,96963.46552910752
2022-11-19T21:27:17.600Z,96970.7076084286
2022-11-19T21:31:17.855Z,96964.15869028818
2022-11-19T21:34:18.950Z,96966.02905945577
2022-11-19T21:37:16.252Z,96955.17201484238
2022-11-19T21:41:17.191Z,96952.0701557706
2022-11-19T21:44:21.034Z,96951.50154476539
2022-11-19T21:47:16.911Z,96952.18645447597
2022-11-19T21:51:23.066Z,96953.77876589228
2022-11-19T21:54:17.765Z,96952.54537813888
2022-11-19T21:57:17.505Z,96950.53595341489
2022-11-19T22:01:16.876Z,96965.77172758702
2022-11-19T22:04:17.114Z,96971.08090341327
2022-11-19T22:07:17.796Z,96969.01578158156
2022-11-19T22:11:32.536Z,96967.54889550414
2022-11-19T22:14:16.861Z,96975.3456276304
2022-11-19T22:17:17.132Z,96968.90353968974
2022-11-19T22:21:16.388Z,96977.99168422833
2022-11-19T22:24:16.505Z,96981.15527662277
2022-11-19T22:27:22.772Z,96990.03193589188
2022-11-19T22:41:19.313Z,96987.77687802847
2022-11-19T22:44:16.605Z,96988.28959911047
2022-11-19T22:47:16.665Z,96979.79200028832
2022-11-19T22:51:18.509Z,96984.53629128325
2022-11-19T22:54:16.762Z,96985.68069314367
2022-11-19T22:57:16.327Z,97000.97717800514
2022-11-19T23:01:20.868Z,97000.12110084195
2022-11-19T23:04:17.018Z,97003.37528235765
2022-11-19T23:07:18.419Z,96998.44990233057
2022-11-19T23:11:18.397Z,97004.22655617533
2022-11-19T23:14:18.059Z,97005.71168170658
2022-11-19T23:17:16.330Z,97017.9847607064
2022-11-19T23:21:19.522Z,97020.28603141726
2022-11-19T23:24:16.910Z,97025.45355397165
2022-11-19T23:27:21.889Z,97019.63123882569
2022-11-19T23:31:18.370Z,97021.16441366302
2022-11-19T23:34:17.617Z,97023.15550133656
2022-11-19T23:37:16.753Z,97025.55975701286
2022-11-19T23:41:18.980Z,97030.90062739175
2022-11-19T23:44:16.590Z,97034.85432212491
2022-11-19T23:47:16.611Z,97038.08911739489
2022-11-19T23:51:18.541Z,97047.83851247423
2022-11-19T23:54:16.576Z,97048.802423987
2022-11-19T23:57:16.319Z,97048.72656351923
